createdAt,value
2018-03-23T00:01:47.444Z,100521.34
2018-03-23T00:04:14.969Z,100518.30
2018-03-23T00:06:42.498Z,100519.25
2018-03-23T00:09:10.021Z,100513.11
2018-03-23T00:11:37.548Z,100510.31
2018-03-23T00:14:05.173Z,100513.86
2018-03-23T00:16:32.693Z,100515.37
2018-03-23T00:19:00.230Z,100523.67
2018-03-23T00:21:27.787Z,100517.48
2018-03-23T00:23:55.311Z,100518.45
2018-03-23T00:26:22.828Z,100519.80
2018-03-23T00:28:50.365Z,100526.94
2018-03-23T00:31:17.891Z,100518.37
2018-03-23T00:33:46.251Z,100526.08
2018-03-23T00:36:13.782Z,100527.00
2018-03-23T00:38:41.392Z,100523.92
2018-03-23T00:41:08.908Z,100532.84
2018-03-23T00:43:36.496Z,100525.39
2018-03-23T00:46:04.032Z,100524.02
2018-03-23T00:48:31.558Z,100520.50
2018-03-23T00:50:59.090Z,100518.30
2018-03-23T00:53:26.606Z,100516.44
2018-03-23T00:55:54.135Z,100512.60
2018-03-23T00:58:21.664Z,100507.24
2018-03-23T01:00:49.230Z,100506.92
2018-03-23T01:03:16.756Z,100512.71
2018-03-23T01:05:44.274Z,100511.47
2018-03-23T01:08:11.805Z,100505.08
2018-03-23T01:10:39.322Z,100512.55
2018-03-23T01:13:06.853Z,100503.52
2018-03-23T01:15:34.484Z,100520.55
2018-03-23T01:18:02.009Z,100518.06
2018-03-23T01:20:29.538Z,100512.75
2018-03-23T01:22:57.129Z,100511.16
2018-03-23T01:25:24.648Z,100514.75
2018-03-23T01:27:52.183Z,100517.43
2018-03-23T01:30:19.711Z,100515.64
2018-03-23T01:32:47.245Z,100512.31
2018-03-23T01:35:14.790Z,100511.37
2018-03-23T01:37:42.423Z,100519.03
2018-03-23T01:40:09.983Z,100524.77
2018-03-23T01:42:37.497Z,100519.19
2018-03-23T01:45:05.025Z,100521.33
2018-03-23T01:47:32.561Z,100523.98
2018-03-23T01:50:00.076Z,100520.17
2018-03-23T01:52:27.682Z,100526.89
2018-03-23T01:54:55.240Z,100519.38
2018-03-23T01:57:22.765Z,100522.95
2018-03-23T01:59:50.362Z,100532.60
2018-03-23T02:02:17.879Z,100518.95
2018-03-23T02:04:45.401Z,100511.34
2018-03-23T02:07:12.934Z,100504.41
2018-03-23T02:09:40.449Z,100512.39
2018-03-23T02:12:07.976Z,100507.03
2018-03-23T02:14:35.512Z,100510.34
2018-03-23T02:17:03.043Z,100512.48
2018-03-23T02:19:30.601Z,100507.98
2018-03-23T02:21:58.161Z,100513.73
2018-03-23T02:24:25.757Z,100506.66
2018-03-23T02:26:53.282Z,100501.44
2018-03-23T02:29:20.982Z,100506.66
2018-03-23T02:31:48.508Z,100487.69
2018-03-23T02:34:16.102Z,100484.63
2018-03-23T02:36:43.659Z,100479.76
2018-03-23T02:39:11.187Z,100485.98
2018-03-23T02:41:38.714Z,100492.59
2018-03-23T02:44:06.263Z,100485.88
2018-03-23T02:46:33.792Z,100488.17
2018-03-23T02:49:01.324Z,100492.08
2018-03-23T02:51:28.851Z,100483.25
2018-03-23T02:53:56.375Z,100485.45
2018-03-23T02:56:23.889Z,100474.50
2018-03-23T02:58:51.413Z,100483.02
2018-03-23T03:01:19.071Z,100483.44
2018-03-23T03:03:46.632Z,100488.23
2018-03-23T03:06:14.152Z,100481.91
2018-03-23T03:08:41.680Z,100481.06
2018-03-23T03:11:09.213Z,100485.89
2018-03-23T03:13:36.854Z,100483.34
2018-03-23T03:16:04.384Z,100486.78
2018-03-23T03:18:31.929Z,100491.19
2018-03-23T03:20:59.520Z,100482.87
2018-03-23T03:23:27.044Z,100487.15
2018-03-23T03:25:54.590Z,100495.71
2018-03-23T03:28:22.149Z,100506.83
2018-03-23T03:30:49.710Z,100509.09
2018-03-23T03:33:17.244Z,100509.02
2018-03-23T03:35:44.777Z,100511.66
2018-03-23T03:38:12.293Z,100511.70
2018-03-23T03:40:39.914Z,100501.22
2018-03-23T03:43:07.449Z,100498.20
2018-03-23T03:45:35.032Z,100501.66
2018-03-23T03:48:02.570Z,100502.83
2018-03-23T03:50:30.099Z,100508.27
2018-03-23T03:52:57.638Z,100505.13
2018-03-23T03:55:25.281Z,100503.75
2018-03-23T03:57:52.810Z,100499.42
2018-03-23T04:00:20.321Z,100502.98
2018-03-23T04:02:47.857Z,100499.03
2018-03-23T04:05:15.385Z,100498.42
2018-03-23T04:07:42.906Z,100508.70
2018-03-23T04:10:10.537Z,100503.88
2018-03-23T04:12:38.097Z,100502.14
2018-03-23T04:15:05.623Z,100503.55
2018-03-23T04:17:33.216Z,100498.70
2018-03-23T04:20:00.739Z,100493.38
2018-03-23T04:22:28.263Z,100490.61
2018-03-23T04:24:55.794Z,100489.84
2018-03-23T04:27:23.344Z,100485.37
2018-03-23T04:29:50.876Z,100486.75
2018-03-23T04:32:18.393Z,100486.77
2018-03-23T04:34:45.930Z,100485.87
2018-03-23T04:37:13.461Z,100488.93
2018-03-23T04:39:40.995Z,100478.77
2018-03-23T04:42:08.541Z,100489.36
2018-03-23T04:44:36.097Z,100480.39
2018-03-23T04:47:03.627Z,100491.45
2018-03-23T04:49:31.186Z,100488.75
2018-03-23T04:51:58.724Z,100483.02
2018-03-23T04:54:26.245Z,100479.94
2018-03-23T04:56:53.793Z,100475.50
2018-03-23T04:59:21.310Z,100475.94
2018-03-23T05:01:48.856Z,100466.57
2018-03-23T05:04:16.370Z,100461.75
2018-03-23T05:06:43.899Z,100461.34
2018-03-23T05:09:11.432Z,100468.81
2018-03-23T05:11:39.015Z,100469.70
2018-03-23T05:14:06.546Z,100470.22
2018-03-23T05:16:34.070Z,100467.51
2018-03-23T05:19:01.589Z,100476.47
2018-03-23T05:21:29.120Z,100466.68
2018-03-23T05:23:56.687Z,100470.16
2018-03-23T05:26:24.245Z,100467.86
2018-03-23T05:28:51.806Z,100466.97
2018-03-23T05:31:19.366Z,100469.69
2018-03-23T05:33:46.886Z,100461.47
2018-03-23T05:36:14.400Z,100467.50
2018-03-23T05:38:41.946Z,100467.48
2018-03-23T05:41:09.461Z,100471.92
2018-03-23T05:43:37.091Z,100474.11
2018-03-23T05:46:04.617Z,100468.38
2018-03-23T05:48:32.144Z,100468.83
2018-03-23T05:50:59.676Z,100470.59
2018-03-23T05:53:27.198Z,100465.35
2018-03-23T05:55:54.750Z,100466.66
2018-03-23T05:58:22.323Z,100471.24
2018-03-23T06:00:49.915Z,100470.73
2018-03-23T06:03:17.470Z,100467.59
2018-03-23T06:05:45.003Z,100468.03
2018-03-23T06:08:12.520Z,100466.25
2018-03-23T06:10:40.047Z,100466.19
2018-03-23T06:13:07.582Z,100467.95
2018-03-23T06:15:35.172Z,100475.89
2018-03-23T06:18:02.708Z,100471.89
2018-03-23T06:20:30.225Z,100472.34
2018-03-23T06:22:57.848Z,100471.37
2018-03-23T06:25:25.377Z,100474.48
2018-03-23T06:27:52.902Z,100471.83
2018-03-23T06:30:20.532Z,100477.16
2018-03-23T06:32:48.057Z,100480.30
2018-03-23T06:35:15.576Z,100472.81
2018-03-23T06:37:43.111Z,100470.94
2018-03-23T06:40:10.638Z,100472.27
2018-03-23T06:42:38.152Z,100474.94
2018-03-23T06:45:05.684Z,100478.78
2018-03-23T06:47:33.215Z,100472.41
2018-03-23T06:50:00.807Z,100473.66
2018-03-23T06:52:28.332Z,100474.48
2018-03-23T06:54:55.850Z,100473.12
2018-03-23T06:57:23.386Z,100477.58
2018-03-23T06:59:50.901Z,100480.61
2018-03-23T07:02:18.432Z,100482.00
2018-03-23T07:04:46.051Z,100479.26
2018-03-23T07:07:13.588Z,100479.61
2018-03-23T07:09:41.109Z,100482.55
2018-03-23T07:12:08.749Z,100482.20
2018-03-23T07:14:36.273Z,100484.97
2018-03-23T07:17:03.867Z,100485.31
2018-03-23T07:19:31.390Z,100487.64
2018-03-23T07:21:58.921Z,100484.50
2018-03-23T07:24:26.445Z,100486.98
2018-03-23T07:26:53.989Z,100498.02
2018-03-23T07:29:21.559Z,100487.91
2018-03-23T07:31:49.090Z,100489.11
2018-03-23T07:34:16.686Z,100494.32
2018-03-23T07:36:44.226Z,100490.66
2018-03-23T07:39:11.758Z,100495.41
2018-03-23T07:41:39.287Z,100494.69
2018-03-23T07:44:06.920Z,100497.67
2018-03-23T07:46:34.450Z,100498.47
2018-03-23T07:49:01.969Z,100497.13
2018-03-23T07:51:29.505Z,100494.34
2018-03-23T07:53:57.025Z,100498.06
2018-03-23T07:56:24.622Z,100497.48
2018-03-23T07:58:52.168Z,100488.08
2018-03-23T08:01:19.694Z,100489.47
2018-03-23T08:03:47.302Z,100492.36
2018-03-23T08:06:14.830Z,100489.39
2018-03-23T08:08:42.363Z,100492.50
2018-03-23T08:11:09.998Z,100487.63
2018-03-23T08:13:37.541Z,100483.94
2018-03-23T08:16:05.081Z,100481.75
2018-03-23T08:18:32.602Z,100482.47
2018-03-23T08:21:00.163Z,100477.89
2018-03-23T08:23:27.718Z,100485.00
2018-03-23T08:25:55.342Z,100485.89
2018-03-23T08:28:22.871Z,100485.28
2018-03-23T08:30:50.402Z,100481.69
2018-03-23T08:33:17.921Z,100486.70
2018-03-23T08:35:45.446Z,100480.77
2018-03-23T08:38:12.977Z,100474.36
2018-03-23T08:40:40.500Z,100483.44
2018-03-23T08:43:08.033Z,100472.62
2018-03-23T08:45:35.563Z,100476.53
2018-03-23T08:48:03.112Z,100478.38
2018-03-23T08:50:30.742Z,100477.72
2018-03-23T08:52:58.271Z,100483.42
2018-03-23T08:55:25.859Z,100484.33
2018-03-23T08:57:53.417Z,100482.86
2018-03-23T09:00:20.952Z,100480.89
2018-03-23T09:02:48.539Z,100474.14
2018-03-23T09:05:16.073Z,100483.05
2018-03-23T09:07:43.593Z,100485.68
2018-03-23T09:10:11.121Z,100472.20
2018-03-23T09:12:38.676Z,100483.77
2018-03-23T09:15:06.207Z,100485.73
2018-03-23T09:17:33.739Z,100484.91
2018-03-23T09:20:01.253Z,100490.53
2018-03-23T09:22:28.790Z,100484.05
2018-03-23T09:24:56.314Z,100483.55
2018-03-23T09:27:23.838Z,100480.03
2018-03-23T09:29:51.364Z,100479.89
2018-03-23T09:32:18.884Z,100480.56
2018-03-23T09:34:46.413Z,100481.79
2018-03-23T09:37:13.968Z,100480.58
2018-03-23T09:39:41.498Z,100472.19
2018-03-23T09:42:09.020Z,100480.33
2018-03-23T09:44:36.551Z,100473.12
2018-03-23T09:47:04.103Z,100467.61
2018-03-23T09:49:31.635Z,100469.94
2018-03-23T09:51:59.168Z,100466.27
2018-03-23T09:54:26.697Z,100469.53
2018-03-23T09:56:54.223Z,100466.35
2018-03-23T09:59:21.761Z,100472.03
2018-03-23T10:01:49.285Z,100464.30
2018-03-23T10:04:16.818Z,100462.78
2018-03-23T10:06:44.337Z,100462.28
2018-03-23T10:09:11.872Z,100461.80
2018-03-23T10:11:39.384Z,100466.16
2018-03-23T10:14:06.909Z,100473.46
2018-03-23T10:16:34.445Z,100470.20
2018-03-23T10:19:01.979Z,100466.34
2018-03-23T10:21:29.503Z,100471.33
2018-03-23T10:23:57.024Z,100469.94
2018-03-23T10:26:24.558Z,100462.16
2018-03-23T10:28:52.081Z,100469.31
2018-03-23T10:31:19.614Z,100464.00
2018-03-23T10:33:47.134Z,100458.98
2018-03-23T10:36:14.663Z,100460.15
2018-03-23T10:38:42.186Z,100456.52
2018-03-23T10:41:09.713Z,100456.70
2018-03-23T10:43:37.235Z,100455.86
2018-03-23T10:46:04.761Z,100456.97
2018-03-23T10:48:32.290Z,100452.05
2018-03-23T10:50:59.812Z,100453.59
2018-03-23T10:53:27.441Z,100463.11
2018-03-23T10:55:54.938Z,100455.34
2018-03-23T10:58:22.457Z,100453.48
2018-03-23T11:00:55.654Z,100454.41
2018-03-23T11:03:23.369Z,100450.02
2018-03-23T11:05:50.895Z,100447.05
2018-03-23T11:08:19.255Z,100454.41
2018-03-23T11:10:46.803Z,100455.80
2018-03-23T11:13:14.342Z,100458.06
2018-03-23T11:15:41.904Z,100463.89
2018-03-23T11:18:09.426Z,100459.89
2018-03-23T11:20:36.952Z,100455.98
2018-03-23T11:23:04.510Z,100454.05
2018-03-23T11:25:32.045Z,100452.91
2018-03-23T11:27:59.598Z,100458.58
2018-03-23T11:30:27.130Z,100457.59
2018-03-23T11:32:54.657Z,100459.79
2018-03-23T11:35:22.177Z,100453.63
2018-03-23T11:37:49.702Z,100447.80
2018-03-23T11:40:17.222Z,100446.77
2018-03-23T11:42:44.761Z,100436.53
2018-03-23T11:45:12.282Z,100437.63
2018-03-23T11:47:39.831Z,100438.08
2018-03-23T11:50:07.374Z,100443.34
2018-03-23T11:52:34.902Z,100432.73
2018-03-23T11:55:02.459Z,100432.05
2018-03-23T11:57:29.986Z,100435.72
2018-03-23T11:59:57.538Z,100433.78
2018-03-23T12:02:25.073Z,100430.47
2018-03-23T12:04:52.617Z,100435.66
2018-03-23T12:07:20.146Z,100430.78
2018-03-23T12:09:47.683Z,100434.94
2018-03-23T12:12:15.205Z,100431.77
2018-03-23T12:14:42.772Z,100431.06
2018-03-23T12:17:10.322Z,100422.09
2018-03-23T12:19:37.862Z,100422.69
2018-03-23T12:22:05.383Z,100420.91
2018-03-23T12:24:32.901Z,100423.14
2018-03-23T12:27:00.435Z,100419.06
2018-03-23T12:29:27.960Z,100417.41
2018-03-23T12:31:55.499Z,100418.56
2018-03-23T12:34:23.034Z,100413.34
2018-03-23T12:36:50.564Z,100418.02
2018-03-23T12:39:18.109Z,100410.37
2018-03-23T12:41:45.658Z,100410.68
2018-03-23T12:44:13.202Z,100407.45
2018-03-23T12:46:40.743Z,100412.24
2018-03-23T12:49:08.299Z,100410.86
2018-03-23T12:51:35.815Z,100403.63
2018-03-23T12:54:03.334Z,100391.92
2018-03-23T12:56:30.890Z,100388.59
2018-03-23T12:58:58.465Z,100392.53
2018-03-23T13:01:25.996Z,100384.45
2018-03-23T13:03:53.568Z,100389.13
2018-03-23T13:06:21.133Z,100394.14
2018-03-23T13:08:48.672Z,100387.48
2018-03-23T13:11:16.237Z,100380.89
2018-03-23T13:13:43.768Z,100380.57
2018-03-23T13:16:11.290Z,100378.05
2018-03-23T13:18:38.823Z,100372.86
2018-03-23T13:21:06.425Z,100375.06
2018-03-23T13:23:34.007Z,100370.68
2018-03-23T13:26:01.533Z,100367.40
2018-03-23T13:28:29.062Z,100363.97
2018-03-23T13:30:56.610Z,100365.56
2018-03-23T13:33:24.144Z,100361.61
2018-03-23T13:35:51.690Z,100365.81
2018-03-23T13:38:19.267Z,100371.14
2018-03-23T13:40:46.794Z,100363.61
2018-03-23T13:43:14.349Z,100353.48
2018-03-23T13:45:41.945Z,100349.27
2018-03-23T13:48:09.507Z,100347.32
2018-03-23T13:50:37.061Z,100348.67
2018-03-23T13:53:04.606Z,100352.53
2018-03-23T13:55:32.151Z,100351.34
2018-03-23T13:57:59.676Z,100349.87
2018-03-23T14:00:32.849Z,100344.60
2018-03-23T14:03:00.398Z,100340.55
2018-03-23T14:05:27.917Z,100340.12
2018-03-23T14:07:55.447Z,100333.68
2018-03-23T14:10:22.969Z,100328.25
2018-03-23T14:12:50.499Z,100325.73
2018-03-23T14:15:18.048Z,100330.59
2018-03-23T14:17:45.675Z,100324.13
2018-03-23T14:20:13.216Z,100329.95
2018-03-23T14:22:40.794Z,100325.48
2018-03-23T14:25:08.349Z,100318.66
2018-03-23T14:27:35.901Z,100311.89
2018-03-23T14:30:03.448Z,100313.55
2018-03-23T14:32:30.974Z,100316.81
2018-03-23T14:34:58.493Z,100313.12
2018-03-23T14:37:26.030Z,100316.34
2018-03-23T14:39:53.583Z,100314.78
2018-03-23T14:42:21.113Z,100308.91
2018-03-23T14:44:48.646Z,100305.90
2018-03-23T14:47:16.300Z,100307.41
2018-03-23T14:49:43.844Z,100298.63
2018-03-23T14:52:11.380Z,100299.83
2018-03-23T14:54:38.910Z,100298.83
2018-03-23T14:57:06.439Z,100301.55
2018-03-23T14:59:34.782Z,100295.73
2018-03-23T15:02:02.296Z,100297.62
2018-03-23T15:04:29.822Z,100299.87
2018-03-23T15:06:57.366Z,100295.73
2018-03-23T15:09:24.885Z,100296.62
2018-03-23T15:11:52.485Z,100294.84
2018-03-23T15:14:20.075Z,100289.20
2018-03-23T15:16:47.632Z,100282.55
2018-03-23T15:19:15.191Z,100284.05
2018-03-23T15:21:42.774Z,100275.17
2018-03-23T15:24:10.282Z,100284.36
2018-03-23T15:26:37.807Z,100283.58
2018-03-23T15:29:05.360Z,100286.35
2018-03-23T15:31:32.888Z,100282.68
2018-03-23T15:34:00.414Z,100287.45
2018-03-23T15:36:27.933Z,100283.44
2018-03-23T15:38:55.505Z,100282.32
2018-03-23T15:41:23.033Z,100283.95
2018-03-23T15:43:50.587Z,100286.52
2018-03-23T15:46:18.117Z,100276.86
2018-03-23T15:48:45.657Z,100282.96
2018-03-23T15:51:13.204Z,100280.30
2018-03-23T15:53:40.792Z,100286.40
2018-03-23T15:56:08.324Z,100277.31
2018-03-23T15:58:35.842Z,100275.98
2018-03-23T16:01:03.376Z,100277.22
2018-03-23T16:03:30.901Z,100272.38
2018-03-23T16:05:58.494Z,100278.23
2018-03-23T16:08:26.019Z,100281.55
2018-03-23T16:10:53.542Z,100277.34
2018-03-23T16:13:21.151Z,100278.08
2018-03-23T16:15:48.638Z,100285.98
2018-03-23T16:18:16.157Z,100278.90
2018-03-23T16:20:43.753Z,100279.48
2018-03-23T16:23:11.308Z,100280.46
2018-03-23T16:25:38.872Z,100275.60
2018-03-23T16:28:06.384Z,100282.66
2018-03-23T16:30:34.607Z,100284.87
2018-03-23T16:33:02.133Z,100276.03
2018-03-23T16:35:29.830Z,100279.78
2018-03-23T16:37:57.353Z,100276.23
2018-03-23T16:40:24.874Z,100281.41
2018-03-23T16:42:52.405Z,100279.30
2018-03-23T16:45:19.969Z,100280.80
2018-03-23T16:47:47.530Z,100276.97
2018-03-23T16:50:15.057Z,100276.45
2018-03-23T16:52:42.620Z,100279.55
2018-03-23T16:55:10.144Z,100284.12
2018-03-23T16:57:37.890Z,100282.62
2018-03-23T17:00:05.634Z,100285.72
2018-03-23T17:02:33.297Z,100285.98
2018-03-23T17:05:00.855Z,100282.50
2018-03-23T17:07:28.382Z,100284.65
2018-03-23T17:09:55.960Z,100285.61
2018-03-23T17:12:23.537Z,100285.05
2018-03-23T17:14:51.115Z,100290.81
2018-03-23T17:17:18.652Z,100295.36
2018-03-23T17:19:46.182Z,100296.57
2018-03-23T17:22:13.710Z,100292.25
2018-03-23T17:24:41.236Z,100292.26
2018-03-23T17:27:08.757Z,100292.35
2018-03-23T17:29:36.293Z,100295.39
2018-03-23T17:32:03.856Z,100297.16
2018-03-23T17:34:31.395Z,100298.84
2018-03-23T17:36:58.931Z,100295.08
2018-03-23T17:39:26.458Z,100300.31
2018-03-23T17:41:54.058Z,100294.23
2018-03-23T17:44:21.603Z,100304.61
2018-03-23T17:46:49.151Z,100302.90
2018-03-23T17:49:16.726Z,100302.88
2018-03-23T17:51:44.295Z,100309.13
2018-03-23T17:54:11.817Z,100307.48
2018-03-23T17:56:39.351Z,100308.59
2018-03-23T17:59:06.968Z,100308.63
2018-03-23T18:01:34.487Z,100312.03
2018-03-23T18:04:02.024Z,100306.03
2018-03-23T18:06:29.552Z,100309.32
2018-03-23T18:08:57.143Z,100303.75
2018-03-23T18:11:24.670Z,100303.22
2018-03-23T18:13:52.186Z,100299.52
2018-03-23T18:16:19.718Z,100301.28
2018-03-23T18:18:47.353Z,100302.53
2018-03-23T18:21:14.884Z,100305.91
2018-03-23T18:23:42.414Z,100310.77
2018-03-23T18:26:09.942Z,100309.39
2018-03-23T18:28:37.601Z,100319.97
2018-03-23T18:31:05.150Z,100311.65
2018-03-23T18:33:32.682Z,100316.50
2018-03-23T18:36:00.275Z,100315.20
2018-03-23T18:38:27.801Z,100316.24
2018-03-23T18:40:55.331Z,100319.97
2018-03-23T18:43:22.873Z,100315.86
2018-03-23T18:45:50.408Z,100319.48
2018-03-23T18:48:17.971Z,100318.64
2018-03-23T18:50:45.524Z,100319.66
2018-03-23T18:53:13.114Z,100325.28
2018-03-23T18:55:40.655Z,100323.83
2018-03-23T18:58:08.177Z,100326.94
2018-03-23T19:00:35.706Z,100326.50
2018-03-23T19:03:03.236Z,100327.00
2018-03-23T19:05:30.762Z,100329.98
2018-03-23T19:07:58.279Z,100322.52
2018-03-23T19:10:25.811Z,100325.44
2018-03-23T19:12:53.368Z,100322.48
2018-03-23T19:15:20.913Z,100325.21
2018-03-23T19:17:48.450Z,100324.55
2018-03-23T19:20:15.973Z,100326.05
2018-03-23T19:22:43.505Z,100320.13
2018-03-23T19:25:11.035Z,100327.30
2018-03-23T19:27:38.558Z,100324.98
2018-03-23T19:30:06.082Z,100328.61
2018-03-23T19:32:33.611Z,100330.40
2018-03-23T19:35:01.134Z,100330.31
2018-03-23T19:37:28.659Z,100326.48
2018-03-23T19:39:56.180Z,100323.92
2018-03-23T19:42:23.749Z,100319.45
2018-03-23T19:44:51.272Z,100325.08
2018-03-23T19:47:18.842Z,100325.45
2018-03-23T19:49:46.389Z,100326.30
2018-03-23T19:52:13.914Z,100322.53
2018-03-23T19:54:41.436Z,100320.22
2018-03-23T19:57:09.008Z,100324.36
2018-03-23T19:59:36.595Z,100319.44
2018-03-23T20:02:04.154Z,100312.30
2018-03-23T20:04:31.689Z,100312.84
2018-03-23T20:06:59.275Z,100310.59
2018-03-23T20:09:26.804Z,100316.35
2018-03-23T20:11:54.326Z,100321.23
2018-03-23T20:14:21.924Z,100322.61
2018-03-23T20:16:49.451Z,100332.14
2018-03-23T20:19:16.976Z,100328.55
2018-03-23T20:21:44.506Z,100327.86
2018-03-23T20:24:17.581Z,100324.09
2018-03-23T20:26:45.105Z,100323.63
2018-03-23T20:29:12.813Z,100325.88
2018-03-23T20:31:45.856Z,100325.88
2018-03-23T20:34:13.491Z,100327.94
2018-03-23T20:36:41.051Z,100322.58
2018-03-23T20:39:08.676Z,100329.74
2018-03-23T20:41:36.384Z,100323.27
2018-03-23T20:44:04.145Z,100332.88
2018-03-23T20:46:31.672Z,100323.54
2018-03-23T20:48:59.222Z,100330.53
2018-03-23T20:51:26.783Z,100333.64
2018-03-23T20:53:54.327Z,100343.75
2018-03-23T20:56:21.870Z,100332.83
2018-03-23T20:58:49.506Z,100324.50
2018-03-23T21:01:17.269Z,100324.69
2018-03-23T21:03:44.928Z,100330.63
2018-03-23T21:06:12.553Z,100323.10
2018-03-23T21:08:40.149Z,100323.36
2018-03-23T21:11:07.746Z,100317.25
2018-03-23T21:13:35.289Z,100314.81
2018-03-23T21:16:02.808Z,100325.52
2018-03-23T21:18:30.320Z,100323.70
2018-03-23T21:20:57.854Z,100324.34
2018-03-23T21:23:25.413Z,100320.29
2018-03-23T21:25:52.944Z,100318.00
2018-03-23T21:28:20.462Z,100314.55
2018-03-23T21:30:47.985Z,100317.78
2018-03-23T21:33:15.544Z,100314.20
2018-03-23T21:35:43.074Z,100310.09
2018-03-23T21:38:10.593Z,100310.75
2018-03-23T21:40:38.122Z,100310.70
2018-03-23T21:43:05.682Z,100315.04
2018-03-23T21:45:33.248Z,100313.69
2018-03-23T21:48:00.782Z,100311.85
2018-03-23T21:50:28.299Z,100309.99
2018-03-23T21:52:55.838Z,100314.97
2018-03-23T21:55:23.357Z,100314.91
2018-03-23T21:57:50.910Z,100308.18
2018-03-23T22:00:18.503Z,100306.94
2018-03-23T22:02:46.035Z,100313.73
2018-03-23T22:05:13.554Z,100306.09
2018-03-23T22:07:41.086Z,100313.11
2018-03-23T22:10:08.615Z,100306.58
2018-03-23T22:12:36.158Z,100302.52
2018-03-23T22:15:03.693Z,100307.87
2018-03-23T22:17:31.216Z,100312.97
2018-03-23T22:19:58.780Z,100304.25
2018-03-23T22:22:26.304Z,100299.86
2018-03-23T22:24:53.900Z,100294.13
2018-03-23T22:27:21.457Z,100291.84
2018-03-23T22:29:49.081Z,100295.48
2018-03-23T22:32:16.606Z,100299.79
2018-03-23T22:34:44.141Z,100290.33
2018-03-23T22:37:11.667Z,100291.17
2018-03-23T22:39:39.217Z,100290.64
2018-03-23T22:42:06.740Z,100290.33
2018-03-23T22:44:34.366Z,100291.95
2018-03-23T22:47:01.945Z,100282.43
2018-03-23T22:49:29.496Z,100291.59
2018-03-23T22:51:57.062Z,100289.91
2018-03-23T22:54:24.605Z,100289.48
2018-03-23T22:56:52.124Z,100283.34
2018-03-23T22:59:19.661Z,100284.95
2018-03-23T23:01:47.180Z,100282.96
2018-03-23T23:04:14.710Z,100286.11
2018-03-23T23:06:42.237Z,100286.92
2018-03-23T23:09:09.757Z,100287.54
2018-03-23T23:11:37.290Z,100281.71
2018-03-23T23:14:04.824Z,100279.88
2018-03-23T23:16:32.340Z,100288.77
2018-03-23T23:18:59.867Z,100288.95
2018-03-23T23:21:27.398Z,100278.44
2018-03-23T23:23:54.931Z,100288.23
2018-03-23T23:26:22.456Z,100282.82
2018-03-23T23:28:49.979Z,100286.81
2018-03-23T23:31:17.539Z,100295.28
2018-03-23T23:33:45.069Z,100289.98
2018-03-23T23:36:12.605Z,100287.77
2018-03-23T23:38:40.127Z,100292.30
2018-03-23T23:41:07.652Z,100294.63
2018-03-23T23:43:35.175Z,100290.56
2018-03-23T23:46:02.707Z,100290.56
2018-03-23T23:48:30.239Z,100281.27
2018-03-23T23:50:57.762Z,100284.39
2018-03-23T23:53:25.282Z,100284.23
2018-03-23T23:55:52.814Z,100287.75
2018-03-23T23:58:20.338Z,100281.67
